Date,TemperatureHighF,TemperatureAvgF,TemperatureLowF,DewpointHighF,DewpointAvgF,DewpointLowF,HumidityHigh,HumidityAvg,HumidityLow,PressureMaxIn,PressureMinIn,WindSpeedMaxMPH,WindSpeedAvgMPH,GustSpeedMaxMPH,PrecipitationSumIn
2013-2-1,20.3,17.4,14.9,17.2,8.7,3.6,92,68,58,30.09,29.62,21,10,26,0.00
2013-2-2,18.1,15.1,10.2,11.0,6.3,1.5,77,68,56,30.09,29.91,13,6,17,0.00
2013-2-3,24.6,15.2,1.9,16.4,8.1,-3.8,88,74,55,29.91,29.71,13,3,15,0.00
2013-2-4,21.4,17.7,15.6,12.8,6.5,4.2,80,61,50,29.85,29.74,24,8,27,0.00
2013-2-5,27.7,19.3,11.5,16.6,10.2,6.1,83,67,53,29.88,29.77,8,2,10,0.00
2013-2-6,27.3,20.7,5.5,22.0,10.5,-7.0,88,65,47,30.30,29.80,24,6,24,0.00
2013-2-7,30.6,19.7,2.5,12.9,5.2,-9.9,81,53,46,30.36,30.12,11,4,16,0.00
2013-2-8,33.6,29.9,25.9,31.7,24.8,11.2,95,82,53,30.12,29.71,15,6,26,0.00
2013-2-9,30.2,30.2,30.2,29.0,29.0,29.0,95,95,95,30.30,29.83,17,7,20,0.00
2013-2-10,30.2,30.2,30.2,29.0,29.0,29.0,95,95,95,30.36,30.03,17,4,20,0.00
2013-2-11,30.2,30.2,30.2,29.0,29.0,29.0,95,95,95,30.03,30.03,6,6,13,0.00
2013-2-12,33.3,31.2,29.3,24.0,20.9,18.7,72,65,58,29.91,29.83,24,10,27,0.00
2013-2-13,37.4,29.6,21.6,22.1,18.6,13.4,74,63,48,29.85,29.68,8,4,12,0.00
2013-2-14,40.1,29.7,16.2,31.9,21.2,10.6,91,72,47,29.88,29.71,13,4,15,0.00
2013-2-15,38.3,33.2,23.9,31.9,25.0,13.4,91,73,49,29.97,29.77,17,6,23,0.00
2013-2-16,27.7,20.0,8.4,18.7,8.4,-2.8,85,60,47,29.97,29.83,12,4,14,0.00
2013-2-17,15.4,10.0,7.0,5.2,-0.6,-4.2,65,61,59,30.00,29.77,24,8,26,0.00
2013-2-18,27.9,17.0,7.9,12.2,5.3,-2.0,75,59,48,30.18,29.94,15,7,22,0.00
2013-2-19,37.4,33.3,27.9,32.2,24.2,10.9,93,72,47,29.97,29.59,23,8,26,0.00
2013-2-20,33.8,24.6,18.9,32.1,17.7,8.3,93,75,57,29.91,29.68,23,11,28,0.00
2013-2-21,18.9,16.4,12.9,15.1,9.7,5.7,93,74,68,30.30,29.88,22,9,25,0.00
2013-2-22,34.9,23.9,16.7,20.6,17.2,15.1,93,77,53,30.30,30.03,15,5,25,0.00
2013-2-23,37.9,34.9,30.2,35.5,31.0,20.5,94,86,65,30.03,29.80,17,6,24,0.00
2013-2-24,36.5,33.9,27.7,35.0,31.8,22.7,94,92,74,29.94,29.80,14,5,17,0.00
2013-2-25,35.2,30.8,21.2,25.4,22.2,16.6,88,70,62,30.18,29.94,9,3,11,0.00
2013-2-26,42.4,29.7,18.0,26.9,20.1,14.8,88,69,47,30.18,29.83,17,5,23,0.00
2013-2-27,39.9,36.2,34.7,36.2,31.6,26.9,95,84,72,29.85,29.53,17,3,23,0.00
2013-2-28,34.9,34.9,34.9,33.7,33.7,33.7,95,95,95,29.62,29.53,8,3,10,0.00